Time;durP1;ratioP1;P1;durP2;ratioP2;P2;SDS_P1;SDS_P2;PMS_P1;PMS_P2;Temp;Humidity;BMP_temperature;BMP_pressure;BME280_temperature;BME280_humidity;BME280_pressure;Samples;Min_cycle;Max_cycle;Signal;HPM_P1;HPM_P2
2021/08/18 00:02:11;;;;;;;3.67;2.47;;;;;;;15.26;80.41;100410.81;5134541;27;20088;-61
2021/08/18 00:04:38;;;;;;;3.58;2.53;;;;;;;15.26;80.61;100418.09;5134147;27;20026;-61
2021/08/18 00:07:04;;;;;;;3.72;2.38;;;;;;;15.20;80.82;100413.31;5134147;27;20053;-61
2021/08/18 00:09:29;;;;;;;3.70;2.28;;;;;;;15.23;80.81;100424.66;5134597;27;20023;-62
2021/08/18 00:11:55;;;;;;;6.07;2.30;;;;;;;15.20;81.03;100432.22;5134395;27;20118;-62
2021/08/18 00:14:20;;;;;;;4.18;2.47;;;;;;;15.17;80.63;100425.31;5132980;27;20023;-61
2021/08/18 00:16:46;;;;;;;3.08;2.10;;;;;;;15.15;80.17;100430.00;5134478;27;20023;-61
2021/08/18 00:19:12;;;;;;;4.28;2.40;;;;;;;15.15;80.40;100429.16;5133921;27;20087;-62
2021/08/18 00:21:37;;;;;;;3.22;2.50;;;;;;;15.12;80.44;100426.81;5133888;27;20026;-61
2021/08/18 00:24:03;;;;;;;4.97;2.17;;;;;;;15.12;80.75;100424.94;5133958;27;20080;-61
2021/08/18 00:26:30;;;;;;;4.75;2.50;;;;;;;15.10;80.18;100415.31;5133912;27;20031;-61
2021/08/18 00:28:56;;;;;;;4.43;2.83;;;;;;;15.13;79.56;100426.63;5133881;27;20023;-61
2021/08/18 00:31:23;;;;;;;4.93;2.30;;;;;;;15.11;79.08;100425.94;5133836;27;20039;-61
2021/08/18 00:33:48;;;;;;;4.28;2.45;;;;;;;15.06;79.18;100425.56;5133619;27;20501;-62
2021/08/18 00:36:14;;;;;;;2.92;2.35;;;;;;;15.03;79.21;100425.88;5133711;27;20057;-61
2021/08/18 00:38:40;;;;;;;3.55;2.35;;;;;;;15.02;79.16;100432.31;5133798;27;20377;-61
2021/08/18 00:41:05;;;;;;;4.50;2.13;;;;;;;15.00;78.84;100420.81;5133712;27;20548;-59
2021/08/18 00:43:31;;;;;;;6.43;2.60;;;;;;;14.98;78.59;100427.38;5133753;27;20070;-59
2021/08/18 00:45:57;;;;;;;4.75;2.30;;;;;;;14.89;79.09;100417.53;5133503;27;20020;-60
2021/08/18 00:48:22;;;;;;;4.18;2.53;;;;;;;14.85;79.39;100419.72;5133381;27;20477;-59
2021/08/18 00:50:48;;;;;;;4.45;2.70;;;;;;;14.85;80.22;100424.25;5133228;27;20019;-60
2021/08/18 00:53:14;;;;;;;5.70;2.55;;;;;;;14.81;80.86;100431.84;5133408;27;20015;-59
2021/08/18 00:55:41;;;;;;;5.00;3.03;;;;;;;14.78;81.08;100418.66;5133307;27;20030;-59
2021/08/18 00:58:11;;;;;;;3.85;2.45;;;;;;;14.72;81.53;100410.34;5133280;27;20027;-60
2021/08/18 01:00:37;;;;;;;3.72;2.55;;;;;;;14.75;82.81;100421.69;5132255;27;20460;-59
2021/08/18 01:03:03;;;;;;;4.57;2.50;;;;;;;14.76;83.39;100417.09;5133171;27;20481;-60
2021/08/18 01:05:29;;;;;;;7.03;2.80;;;;;;;14.80;83.45;100427.44;5133424;27;20035;-62
2021/08/18 01:07:59;;;;;;;3.88;3.08;;;;;;;14.83;83.44;100432.53;5133087;27;20096;-62
2021/08/18 01:10:29;;;;;;;5.00;2.45;;;;;;;14.87;83.40;100428.50;5133168;27;20482;-61
2021/08/18 01:12:56;;;;;;;3.15;2.50;;;;;;;14.85;83.08;100408.06;5133131;27;20469;-61
2021/08/18 01:15:25;;;;;;;4.50;2.70;;;;;;;14.86;83.13;100418.69;5132915;27;20492;-62
2021/08/18 01:17:56;;;;;;;3.53;2.40;;;;;;;14.93;82.93;100424.31;5132770;27;20497;-62
2021/08/18 01:20:37;;;;;;;5.45;2.65;;;;;;;14.92;82.31;100436.13;5132870;27;20097;-62
2021/08/18 01:23:08;;;;;;;5.15;2.67;;;;;;;14.90;82.34;100430.88;5133152;27;20427;-61
2021/08/18 01:25:35;;;;;;;5.28;3.05;;;;;;;14.88;82.66;100422.09;5133223;27;20080;-62
2021/08/18 01:28:02;;;;;;;4.97;2.70;;;;;;;14.92;83.13;100428.00;5132740;27;20465;-61
2021/08/18 01:30:31;;;;;;;3.95;2.58;;;;;;;14.97;83.05;100434.66;5132628;27;20035;-61
2021/08/18 01:33:05;;;;;;;7.05;2.60;;;;;;;14.96;83.13;100432.94;5132837;27;20026;-60
2021/08/18 01:35:36;;;;;;;5.20;2.58;;;;;;;15.03;83.05;100431.28;5132862;27;20031;-61
2021/08/18 01:38:05;;;;;;;4.97;3.08;;;;;;;14.98;83.18;100420.13;5132110;27;20473;-61
2021/08/18 01:40:31;;;;;;;3.50;2.60;;;;;;;15.08;82.92;100439.78;5132469;27;20061;-61
2021/08/18 01:42:57;;;;;;;4.20;2.78;;;;;;;15.10;82.66;100445.88;5132389;27;20047;-61
2021/08/18 01:45:27;;;;;;;5.55;2.70;;;;;;;15.11;82.62;100436.75;5132549;27;20023;-61
2021/08/18 01:47:54;;;;;;;4.82;2.67;;;;;;;15.11;82.22;100447.56;5132356;27;20371;-61
2021/08/18 01:50:21;;;;;;;4.97;2.63;;;;;;;15.09;81.96;100446.84;5132280;27;20094;-61
2021/08/18 01:52:51;;;;;;;5.38;2.63;;;;;;;15.12;82.17;100441.13;5132431;27;20027;-61
2021/08/18 01:55:17;;;;;;;3.90;2.80;;;;;;;15.15;82.00;100443.53;5132127;27;20060;-61
2021/08/18 01:57:43;;;;;;;6.28;3.40;;;;;;;15.18;81.92;100448.59;5132272;27;20019;-61
2021/08/18 02:00:09;;;;;;;4.72;3.38;;;;;;;15.19;81.42;100444.06;5130966;27;20075;-61
2021/08/18 02:02:35;;;;;;;5.40;3.30;;;;;;;15.18;81.81;100448.59;5132506;27;20102;-61
2021/08/18 02:05:01;;;;;;;4.85;3.00;;;;;;;15.22;81.79;100449.16;5132257;27;20558;-61
2021/08/18 02:07:26;;;;;;;3.88;3.20;;;;;;;15.21;81.84;100442.03;5132023;27;20019;-61
2021/08/18 02:09:52;;;;;;;5.85;3.60;;;;;;;15.17;81.74;100430.72;5131793;27;20054;-62
2021/08/18 02:12:17;;;;;;;8.90;3.38;;;;;;;15.22;82.03;100441.88;5132041;27;20019;-60
2021/08/18 02:14:43;;;;;;;5.85;3.28;;;;;;;15.19;82.02;100425.16;5131965;27;20030;-60
2021/08/18 02:17:09;;;;;;;5.60;4.00;;;;;;;15.23;81.84;100432.78;5131876;27;20493;-60
2021/08/18 02:19:34;;;;;;;5.03;3.60;;;;;;;15.20;81.79;100430.38;5132350;27;20019;-59
2021/08/18 02:22:00;;;;;;;4.97;3.40;;;;;;;15.17;81.86;100432.56;5131858;27;20102;-60
2021/08/18 02:24:25;;;;;;;4.78;3.53;;;;;;;15.15;82.16;100427.31;5131482;27;20110;-60
2021/08/18 02:26:51;;;;;;;4.28;3.53;;;;;;;15.13;82.60;100426.63;5131633;27;20497;-60
2021/08/18 02:29:16;;;;;;;4.30;3.10;;;;;;;15.14;83.00;100430.16;5130446;27;20030;-59
2021/08/18 02:31:42;;;;;;;5.10;3.45;;;;;;;15.12;82.82;100437.59;5131672;27;20103;-60
2021/08/18 02:34:09;;;;;;;5.25;3.30;;;;;;;15.15;83.22;100440.81;5131724;27;20072;-59
2021/08/18 02:36:35;;;;;;;5.20;3.58;;;;;;;15.15;82.78;100438.13;5131893;27;20042;-60
2021/08/18 02:39:01;;;;;;;5.95;3.60;;;;;;;15.13;82.65;100442.81;5131276;27;20029;-60
2021/08/18 02:41:27;;;;;;;5.43;3.20;;;;;;;15.11;82.10;100441.28;5131834;27;20169;-60
2021/08/18 02:43:52;;;;;;;5.97;3.45;;;;;;;15.10;82.22;100447.72;5131335;27;20082;-60
2021/08/18 02:46:18;;;;;;;4.93;3.63;;;;;;;15.05;81.96;100432.00;5131484;28;20088;-60
2021/08/18 02:48:44;;;;;;;4.57;3.42;;;;;;;15.04;82.41;100422.19;5132034;27;20066;-59
2021/08/18 02:51:09;;;;;;;4.97;3.38;;;;;;;15.09;82.27;100425.25;5135688;27;20114;-60
2021/08/18 02:53:34;;;;;;;6.35;3.50;;;;;;;15.12;82.71;100427.63;5135843;27;20023;-60
2021/08/18 02:56:00;;;;;;;4.95;3.40;;;;;;;15.13;82.31;100429.31;5135756;27;20027;-60
2021/08/18 02:58:25;;;;;;;5.32;3.50;;;;;;;15.15;82.45;100426.44;5135646;27;20035;-60
2021/08/18 03:00:51;;;;;;;4.97;3.20;;;;;;;15.15;82.55;100429.16;5135683;27;20035;-59
2021/08/18 03:03:16;;;;;;;6.35;3.22;;;;;;;15.12;83.14;100421.41;5135429;27;20023;-59
2021/08/18 03:05:41;;;;;;;7.35;3.30;;;;;;;15.11;83.22;100416.97;5135645;27;20035;-59
2021/08/18 03:08:07;;;;;;;4.47;3.45;;;;;;;15.06;83.22;100411.22;5134287;27;20474;-60
2021/08/18 03:10:32;;;;;;;4.65;3.30;;;;;;;15.10;82.69;100428.81;5135370;27;20019;-60
2021/08/18 03:12:58;;;;;;;5.63;3.72;;;;;;;15.03;82.74;100420.47;5135764;27;20023;-60
2021/08/18 03:15:23;;;;;;;5.82;3.00;;;;;;;15.09;83.03;100430.66;5135284;27;20031;-60
2021/08/18 03:17:49;;;;;;;4.47;3.13;;;;;;;15.07;83.48;100427.28;5135317;27;20030;-59
2021/08/18 03:20:14;;;;;;;4.57;3.53;;;;;;;15.11;84.22;100435.91;5135135;27;20022;-60
2021/08/18 03:22:40;;;;;;;5.55;3.45;;;;;;;15.10;84.67;100421.56;5133606;27;20110;-59
2021/08/18 03:25:06;;;;;;;5.57;3.50;;;;;;;15.15;84.14;100432.72;5135520;27;20079;-60
2021/08/18 03:27:32;;;;;;;4.50;3.08;;;;;;;15.16;83.42;100434.41;5135107;27;20385;-59
2021/08/18 03:29:58;;;;;;;5.30;3.20;;;;;;;15.06;83.04;100430.16;5135022;27;20362;-58
2021/08/18 03:32:23;;;;;;;7.50;3.83;;;;;;;15.10;83.07;100436.91;5135201;27;20091;-60
2021/08/18 03:34:49;;;;;;;10.20;3.63;;;;;;;15.08;83.74;100436.22;5134920;27;20019;-59
2021/08/18 03:37:14;;;;;;;5.22;3.65;;;;;;;15.05;84.23;100444.63;5134858;27;20061;-60
2021/08/18 03:39:40;;;;;;;6.30;3.33;;;;;;;15.02;84.57;100443.09;5134842;27;20068;-60
2021/08/18 03:42:05;;;;;;;7.18;3.25;;;;;;;15.03;84.86;100428.59;5135130;27;20377;-61
2021/08/18 03:44:31;;;;;;;5.57;3.67;;;;;;;15.02;84.28;100432.31;5134365;27;20083;-61
2021/08/18 03:46:56;;;;;;;7.32;3.35;;;;;;;15.01;84.36;100429.75;5133970;27;20560;-60
2021/08/18 03:49:22;;;;;;;5.28;3.25;;;;;;;15.06;83.94;100449.88;5134789;27;20055;-61
2021/08/18 03:51:48;;;;;;;4.65;3.40;;;;;;;14.99;84.01;100438.03;5134397;27;20031;-62
2021/08/18 03:54:13;;;;;;;7.18;3.60;;;;;;;15.06;83.65;100439.06;5134740;27;20466;-61
2021/08/18 03:56:39;;;;;;;4.88;3.72;;;;;;;15.08;84.30;100434.38;5134985;27;20030;-62
2021/08/18 03:59:04;;;;;;;7.32;3.40;;;;;;;15.09;84.48;100438.75;5134653;27;20019;-61
2021/08/18 04:01:30;;;;;;;5.40;3.50;;;;;;;15.12;84.47;100446.53;5133806;27;20041;-62
2021/08/18 04:03:55;;;;;;;4.95;3.50;;;;;;;15.13;83.89;100436.59;5134479;27;20034;-61
2021/08/18 04:06:21;;;;;;;4.68;3.33;;;;;;;15.13;83.83;100432.00;5134413;27;20119;-61
2021/08/18 04:08:46;;;;;;;6.35;3.60;;;;;;;15.15;83.71;100443.53;5134527;27;20023;-60
2021/08/18 04:11:12;;;;;;;4.85;3.70;;;;;;;15.12;83.60;100437.59;5134398;27;20124;-61
2021/08/18 04:13:37;;;;;;;7.95;4.35;;;;;;;15.13;83.49;100440.13;5134626;27;20093;-61
2021/08/18 04:16:03;;;;;;;6.22;3.30;;;;;;;15.10;83.41;100432.38;5134422;27;20599;-61
2021/08/18 04:18:28;;;;;;;3.90;3.38;;;;;;;15.15;83.68;100440.81;5132887;27;20544;-61
2021/08/18 04:20:54;;;;;;;4.28;3.10;;;;;;;15.14;83.40;100428.31;5134160;27;20442;-61
2021/08/18 04:23:20;;;;;;;4.93;3.67;;;;;;;15.17;83.71;100436.13;5133996;27;20113;-60
2021/08/18 04:25:45;;;;;;;5.60;3.63;;;;;;;15.17;83.46;100436.13;5134199;27;20042;-61
2021/08/18 04:28:11;;;;;;;4.85;3.88;;;;;;;15.18;83.63;100426.13;5134414;27;20023;-61
2021/08/18 04:30:36;;;;;;;4.70;3.55;;;;;;;15.16;84.24;100428.16;5133971;27;20028;-61
2021/08/18 04:33:02;;;;;;;4.53;3.50;;;;;;;15.16;84.19;100429.00;5134095;27;20022;-60
2021/08/18 04:35:27;;;;;;;5.68;3.42;;;;;;;15.18;84.65;100426.13;5133905;27;20539;-61
2021/08/18 04:37:53;;;;;;;4.22;3.65;;;;;;;15.19;84.69;100427.84;5133817;27;20114;-61
2021/08/18 04:40:21;;;;;;;6.60;3.67;;;;;;;15.21;84.41;100432.06;5133936;27;20084;-61
2021/08/18 04:42:48;;;;;;;5.25;4.10;;;;;;;15.23;84.47;100440.88;5133501;27;20043;-61
2021/08/18 04:45:15;;;;;;;6.53;3.95;;;;;;;15.24;84.32;100445.25;5134056;27;20514;-61
2021/08/18 04:47:41;;;;;;;6.85;3.53;;;;;;;15.26;84.41;100437.81;5133850;27;20019;-61
2021/08/18 04:50:10;;;;;;;7.15;3.58;;;;;;;15.29;83.79;100444.78;5133568;27;20027;-62
2021/08/18 04:52:35;;;;;;;6.10;3.20;;;;;;;15.26;83.50;100451.34;5133522;27;20019;-62
2021/08/18 04:55:01;;;;;;;4.78;3.90;;;;;;;15.29;82.77;100442.91;5133685;27;20023;-60
2021/08/18 04:57:26;;;;;;;6.95;3.70;;;;;;;15.24;82.68;100437.16;5133757;27;20027;-60
2021/08/18 04:59:52;;;;;;;4.95;3.40;;;;;;;15.27;83.30;100444.94;5133457;27;20025;-60
2021/08/18 05:02:17;;;;;;;5.20;3.65;;;;;;;15.28;82.97;100445.78;5133410;27;20031;-60
2021/08/18 05:04:43;;;;;;;5.28;3.55;;;;;;;15.34;83.54;100454.09;5133424;27;20059;-60
2021/08/18 05:07:09;;;;;;;3.67;3.20;;;;;;;15.34;83.95;100456.78;5133436;27;20027;-62
2021/08/18 05:09:35;;;;;;;4.38;3.10;;;;;;;15.37;83.85;100447.53;5133298;27;20027;-62
2021/08/18 05:12:00;;;;;;;7.00;3.45;;;;;;;15.42;84.22;100453.31;5132686;27;20473;-61
2021/08/18 05:14:26;;;;;;;6.78;3.70;;;;;;;15.39;83.96;100445.53;5132709;27;20048;-62
2021/08/18 05:16:51;;;;;;;4.78;3.30;;;;;;;15.46;83.60;100452.84;5133107;27;20102;-62
2021/08/18 05:19:17;;;;;;;4.97;3.45;;;;;;;15.50;84.00;100451.50;5132895;27;20490;-61
2021/08/18 05:21:42;;;;;;;5.82;3.42;;;;;;;15.53;84.29;100450.31;5133161;27;20023;-62
2021/08/18 05:24:08;;;;;;;4.38;3.20;;;;;;;15.54;84.26;100455.56;5133023;27;20157;-62
2021/08/18 05:26:34;;;;;;;5.43;3.75;;;;;;;15.58;84.09;100469.63;5132917;27;20034;-62
2021/08/18 05:28:59;;;;;;;5.53;4.07;;;;;;;15.63;84.86;100475.38;5131779;27;20023;-62
2021/08/18 05:31:25;;;;;;;5.00;3.92;;;;;;;15.65;84.54;100476.91;5132227;27;20031;-63
2021/08/18 05:33:50;;;;;;;5.35;3.35;;;;;;;15.68;84.54;100479.25;5132594;27;20377;-62
2021/08/18 05:36:16;;;;;;;4.95;3.50;;;;;;;15.69;84.52;100472.88;5132732;27;20034;-60
2021/08/18 05:38:42;;;;;;;4.18;2.88;;;;;;;15.69;84.78;100472.88;5133136;27;20035;-61
2021/08/18 05:41:08;;;;;;;8.40;4.07;;;;;;;15.56;84.57;100442.75;5132731;27;20050;-61
2021/08/18 05:43:37;;;;;;;4.22;3.55;;;;;;;15.68;84.39;100468.44;5132543;27;20502;-61
2021/08/18 05:46:03;;;;;;;4.60;3.53;;;;;;;15.66;84.30;100464.22;5132629;27;20030;-62
2021/08/18 05:48:28;;;;;;;5.05;3.58;;;;;;;15.70;83.99;100479.09;5132533;27;20439;-62
2021/08/18 05:50:54;;;;;;;4.50;3.70;;;;;;;15.71;84.66;100472.72;5131060;27;20062;-62
2021/08/18 05:53:20;;;;;;;6.25;3.10;;;;;;;15.72;85.54;100468.97;5132376;27;20056;-61
2021/08/18 05:55:47;;;;;;;4.90;3.38;;;;;;;15.73;86.03;100473.38;5132978;27;20035;-61
2021/08/18 05:58:12;;;;;;;6.75;3.63;;;;;;;15.75;86.25;100483.03;5132612;27;20030;-61
2021/08/18 06:00:38;;;;;;;8.82;3.50;;;;;;;15.77;86.66;100469.34;5131191;27;20022;-61
2021/08/18 06:03:03;;;;;;;5.15;3.30;;;;;;;15.78;87.02;100469.19;5131959;27;20112;-61
2021/08/18 06:05:30;;;;;;;10.75;3.55;;;;;;;15.81;87.52;100468.84;5132195;27;20023;-62
2021/08/18 06:07:56;;;;;;;4.22;3.30;;;;;;;15.85;87.87;100459.41;5132414;27;20440;-61
2021/08/18 06:10:21;;;;;;;5.07;3.45;;;;;;;15.88;88.45;100456.38;5132154;27;20019;-60
2021/08/18 06:12:47;;;;;;;7.65;3.85;;;;;;;15.96;87.45;100460.94;5132437;27;20027;-61
2021/08/18 06:15:13;;;;;;;10.70;3.85;;;;;;;15.96;86.86;100460.09;5130925;27;20023;-60
2021/08/18 06:17:38;;;;;;;5.55;3.63;;;;;;;15.98;86.99;100461.63;5131924;27;20382;-59
2021/08/18 06:20:05;;;;;;;5.03;3.85;;;;;;;16.09;86.13;100471.28;5131891;27;20015;-59
2021/08/18 06:22:30;;;;;;;5.68;3.33;;;;;;;16.10;85.76;100478.38;5131877;27;20078;-59
2021/08/18 06:24:58;;;;;;;4.68;3.20;;;;;;;16.10;85.55;100468.41;5131729;27;20071;-60
2021/08/18 06:27:25;;;;;;;5.90;3.38;;;;;;;16.15;86.23;100478.75;5131924;27;20015;-60
2021/08/18 06:29:51;;;;;;;6.05;2.78;;;;;;;16.18;85.50;100475.72;5131802;27;20030;-60
2021/08/18 06:32:17;;;;;;;8.35;3.13;;;;;;;16.21;84.20;100467.22;5130568;27;20019;-60
2021/08/18 06:34:42;;;;;;;10.07;3.80;;;;;;;16.36;82.73;100468.28;5129897;27;20018;-60
2021/08/18 06:37:08;;;;;;;5.90;3.42;;;;;;;16.30;82.50;100460.81;5131907;27;20050;-60
2021/08/18 06:39:34;;;;;;;3.70;2.92;;;;;;;16.37;82.20;100473.53;5130520;27;20378;-60
2021/08/18 06:42:00;;;;;;;5.32;3.28;;;;;;;16.42;81.73;100464.91;5131808;27;20046;-60
2021/08/18 06:44:26;;;;;;;6.00;2.90;;;;;;;16.52;80.81;100460.19;5131568;27;20146;-60
2021/08/18 06:46:53;;;;;;;6.10;3.00;;;;;;;16.64;80.77;100456.13;5131453;27;20051;-60
2021/08/18 06:49:19;;;;;;;4.03;2.65;;;;;;;16.76;80.25;100454.75;5130730;28;20045;-61
2021/08/18 06:51:45;;;;;;;4.22;2.83;;;;;;;16.86;79.37;100455.44;5131956;27;20039;-60
2021/08/18 06:54:10;;;;;;;5.63;3.28;;;;;;;16.90;78.74;100445.94;5131685;27;20064;-60
2021/08/18 06:56:36;;;;;;;4.65;3.47;;;;;;;17.03;78.52;100454.41;5131744;27;20023;-61
2021/08/18 06:59:02;;;;;;;4.88;3.47;;;;;;;17.14;78.34;100456.72;5131618;27;20363;-61
2021/08/18 07:01:28;;;;;;;4.43;3.33;;;;;;;17.16;77.86;100441.97;5131394;27;20027;-61
2021/08/18 07:03:53;;;;;;;4.35;3.17;;;;;;;17.37;77.50;100457.69;5131406;27;20034;-61
2021/08/18 07:06:19;;;;;;;3.55;2.67;;;;;;;17.45;76.28;100455.00;5131827;27;20489;-61
2021/08/18 07:08:44;;;;;;;3.25;2.40;;;;;;;17.60;75.44;100450.50;5131615;27;20423;-61
2021/08/18 07:11:10;;;;;;;5.43;3.00;;;;;;;17.69;75.51;100453.00;5130199;28;20031;-61
2021/08/18 07:13:35;;;;;;;4.88;2.72;;;;;;;17.81;75.22;100450.75;5130489;28;20096;-62
2021/08/18 07:16:01;;;;;;;5.15;3.10;;;;;;;17.85;74.70;100446.66;5131387;27;20054;-61
2021/08/18 07:18:26;;;;;;;4.90;2.92;;;;;;;17.93;74.79;100454.75;5131325;27;20582;-61
2021/08/18 07:20:51;;;;;;;4.22;2.97;;;;;;;17.94;74.01;100435.59;5131410;27;20015;-61
2021/08/18 07:23:17;;;;;;;5.43;2.70;;;;;;;18.02;74.03;100448.22;5131553;27;20437;-61
2021/08/18 07:25:43;;;;;;;4.65;3.00;;;;;;;18.08;74.07;100451.09;5131332;27;20023;-61
2021/08/18 07:28:09;;;;;;;3.55;2.60;;;;;;;18.12;74.01;100446.13;5131357;27;20049;-62
2021/08/18 07:30:35;;;;;;;4.95;2.58;;;;;;;18.18;73.00;100447.31;5131154;27;20023;-61
2021/08/18 07:33:01;;;;;;;3.60;2.72;;;;;;;18.21;72.87;100445.06;5131173;27;20030;-61
2021/08/18 07:35:27;;;;;;;17.58;10.20;;;;;;;18.22;72.71;100441.34;5129896;27;20023;-61
2021/08/18 07:37:52;;;;;;;7.13;4.60;;;;;;;18.36;71.23;100450.56;5135135;27;20030;-60
2021/08/18 07:40:18;;;;;;;5.88;4.32;;;;;;;18.29;71.32;100442.31;5134102;27;20426;-60
2021/08/18 07:42:44;;;;;;;3.75;2.97;;;;;;;18.35;72.11;100446.16;5134825;27;20039;-60
2021/08/18 07:45:10;;;;;;;5.10;3.20;;;;;;;18.40;71.61;100455.47;5134929;27;20045;-61
2021/08/18 07:47:36;;;;;;;3.85;3.00;;;;;;;18.44;71.85;100459.50;5133621;27;20110;-60
2021/08/18 07:50:03;;;;;;;6.88;3.15;;;;;;;18.46;71.41;100465.63;5134948;27;20011;-61
2021/08/18 07:52:29;;;;;;;4.35;2.83;;;;;;;18.51;71.16;100465.09;5134747;27;20027;-60
2021/08/18 07:54:54;;;;;;;4.88;2.83;;;;;;;18.53;71.65;100458.44;5134852;27;20561;-61
2021/08/18 07:57:20;;;;;;;8.05;2.75;;;;;;;18.54;71.18;100451.13;5135078;27;20075;-61
2021/08/18 07:59:46;;;;;;;8.38;3.17;;;;;;;18.59;70.87;100456.84;5134664;27;20019;-61
2021/08/18 08:02:11;;;;;;;11.45;3.40;;;;;;;18.70;70.12;100459.97;5134563;27;20062;-60
2021/08/18 08:04:37;;;;;;;9.38;3.58;;;;;;;18.73;69.99;100466.94;5134412;27;20020;-61
2021/08/18 08:07:02;;;;;;;8.50;3.20;;;;;;;18.80;69.90;100463.28;5134590;27;20486;-61
2021/08/18 08:09:28;;;;;;;8.05;3.00;;;;;;;18.88;69.13;100471.38;5133377;27;20106;-61
2021/08/18 08:11:53;;;;;;;5.53;3.13;;;;;;;18.96;68.17;100457.69;5135098;27;20432;-61
2021/08/18 08:14:19;;;;;;;3.95;3.03;;;;;;;19.04;68.76;100460.34;5134547;27;20450;-61
2021/08/18 08:16:45;;;;;;;4.75;2.83;;;;;;;19.14;68.07;100458.19;5134336;27;20023;-61
2021/08/18 08:19:10;;;;;;;17.70;3.72;;;;;;;19.21;67.24;100472.72;5134640;27;20020;-61
2021/08/18 08:21:36;;;;;;;3.78;2.90;;;;;;;19.31;66.82;100465.16;5133005;27;20023;-61
2021/08/18 08:24:02;;;;;;;5.07;2.80;;;;;;;19.36;65.45;100462.75;5134412;27;20427;-61
2021/08/18 08:26:27;;;;;;;4.82;2.65;;;;;;;19.48;63.22;100466.66;5134313;27;20027;-61
2021/08/18 08:28:53;;;;;;;6.63;3.28;;;;;;;19.53;62.28;100455.22;5134461;27;20113;-61
2021/08/18 08:31:18;;;;;;;5.85;2.92;;;;;;;19.48;62.54;100453.06;5134434;27;20023;-62
2021/08/18 08:33:44;;;;;;;6.15;2.80;;;;;;;19.61;62.03;100463.31;5133957;27;20031;-62
2021/08/18 08:36:09;;;;;;;8.63;3.03;;;;;;;19.73;62.21;100468.06;5134311;27;20043;-62
2021/08/18 08:38:35;;;;;;;12.15;2.92;;;;;;;19.77;62.04;100463.09;5135654;27;20023;-62
2021/08/18 08:41:01;;;;;;;5.85;3.00;;;;;;;19.78;61.87;100465.63;5133222;27;20058;-61
2021/08/18 08:43:26;;;;;;;12.48;3.85;;;;;;;19.86;61.67;100468.22;5133999;27;20482;-62
2021/08/18 08:45:52;;;;;;;10.95;3.00;;;;;;;19.88;61.33;100462.59;5133868;27;20038;-61
2021/08/18 08:48:19;;;;;;;8.52;3.58;;;;;;;19.96;61.23;100441.53;5134311;27;20041;-61
2021/08/18 08:50:48;;;;;;;10.27;3.22;;;;;;;20.01;61.41;100447.25;5132363;27;20041;-61
2021/08/18 08:53:13;;;;;;;7.35;3.10;;;;;;;19.99;61.51;100443.88;5133480;27;20051;-62
2021/08/18 08:55:40;;;;;;;13.57;3.97;;;;;;;19.99;61.47;100430.25;5133581;27;20046;-62
2021/08/18 08:58:06;;;;;;;13.00;3.83;;;;;;;20.16;60.60;100450.81;5132100;27;20023;-62
2021/08/18 09:00:32;;;;;;;11.05;3.40;;;;;;;20.18;59.23;100429.69;5133364;27;20026;-62
2021/08/18 09:03:15;;;;;;;5.93;3.30;;;;;;;20.25;58.16;100442.53;5133278;27;20043;-60
2021/08/18 09:05:42;;;;;;;7.43;3.28;;;;;;;20.30;58.50;100437.31;5133286;27;20111;-60
2021/08/18 09:08:10;;;;;;;8.18;2.92;;;;;;;20.36;59.29;100434.69;5133592;27;20019;-60
2021/08/18 09:10:36;;;;;;;7.10;3.10;;;;;;;20.39;59.75;100430.72;5133076;27;20023;-60
2021/08/18 09:13:36;;;;;;;5.55;3.45;;;;;;;20.59;58.70;100439.91;5133179;27;20446;-61
2021/08/18 09:16:05;;;;;;;5.85;3.72;;;;;;;20.75;58.40;100436.91;5133036;27;20023;-61
2021/08/18 09:18:45;;;;;;;7.40;3.88;;;;;;;21.03;56.30;100441.38;5132950;27;20092;-61
2021/08/18 09:21:34;;;;;;;7.43;3.80;;;;;;;21.25;53.96;100428.50;5133191;27;20493;-61
2021/08/18 09:24:12;;;;;;;5.32;3.72;;;;;;;21.52;51.24;100435.78;5132938;27;20098;-61
2021/08/18 09:26:42;;;;;;;6.65;4.15;;;;;;;21.73;49.00;100427.53;5132910;27;20022;-62
2021/08/18 09:29:08;;;;;;;10.30;4.38;;;;;;;21.96;47.51;100428.03;5132972;27;20019;-61
2021/08/18 09:31:33;;;;;;;6.75;4.25;;;;;;;22.10;47.41;100427.88;5131332;27;20064;-61
2021/08/18 09:33:59;;;;;;;6.93;3.80;;;;;;;22.26;46.67;100408.38;5132813;27;20382;-61
2021/08/18 09:36:29;;;;;;;7.78;4.30;;;;;;;22.55;46.14;100407.16;5132964;27;20039;-62
2021/08/18 09:39:20;;;;;;;8.45;4.50;;;;;;;22.81;45.96;100414.53;5133296;27;20027;-61
2021/08/18 09:41:46;;;;;;;6.28;4.35;;;;;;;23.00;45.11;100419.13;5132804;27;20402;-61
2021/08/18 09:44:12;;;;;;;7.22;4.18;;;;;;;23.27;43.55;100402.50;5131129;27;20047;-62
2021/08/18 09:46:37;;;;;;;8.00;4.25;;;;;;;23.44;43.72;100406.44;5132659;27;20075;-61
2021/08/18 09:49:07;;;;;;;6.20;4.13;;;;;;;23.52;43.46;100399.88;5132530;27;20030;-62
2021/08/18 09:51:32;;;;;;;6.15;4.13;;;;;;;23.58;42.29;100408.09;5132404;27;20486;-61
2021/08/18 09:54:12;;;;;;;6.57;4.60;;;;;;;23.66;42.31;100406.97;5132336;27;20026;-61
2021/08/18 09:56:48;;;;;;;8.23;4.60;;;;;;;23.81;41.01;100416.63;5132043;27;20027;-61
2021/08/18 09:59:16;;;;;;;7.43;4.55;;;;;;;23.84;40.32;100410.72;5131794;27;20034;-62
2021/08/18 10:01:41;;;;;;;7.78;4.35;;;;;;;23.84;40.66;100412.59;5132252;27;20028;-62
2021/08/18 10:04:07;;;;;;;7.70;4.20;;;;;;;23.82;40.88;100411.97;5132027;27;20123;-61
2021/08/18 10:06:33;;;;;;;7.68;4.88;;;;;;;23.84;40.65;100407.13;5132339;27;20035;-61
2021/08/18 10:08:58;;;;;;;7.00;4.15;;;;;;;23.77;40.71;100409.88;5131976;27;20072;-61
2021/08/18 10:11:26;;;;;;;6.43;4.10;;;;;;;23.77;41.06;100407.13;5132420;27;20394;-61
2021/08/18 10:13:52;;;;;;;6.35;4.10;;;;;;;23.72;41.10;100404.22;5131982;27;20448;-62
2021/08/18 10:16:19;;;;;;;6.90;4.20;;;;;;;23.73;40.71;100399.59;5132101;27;20063;-62
2021/08/18 10:18:47;;;;;;;5.97;4.35;;;;;;;23.71;41.15;100409.94;5131938;27;20050;-61
2021/08/18 10:21:19;;;;;;;6.68;4.80;;;;;;;23.71;41.30;100410.78;5132137;27;20023;-62
2021/08/18 10:23:46;;;;;;;6.82;4.43;;;;;;;23.73;41.96;100407.81;5131657;27;20390;-63
2021/08/18 10:26:34;;;;;;;6.10;4.53;;;;;;;23.80;40.89;100409.44;5131873;27;20034;-64
2021/08/18 10:29:00;;;;;;;6.22;4.35;;;;;;;23.79;40.66;100402.28;5131859;27;20023;-63
2021/08/18 10:31:59;;;;;;;7.60;4.97;;;;;;;23.80;41.74;100412.19;5132160;27;20042;-63
2021/08/18 10:34:41;;;;;;;5.35;3.78;;;;;;;23.84;40.79;100407.97;5097825;27;20100;-63
2021/08/18 10:37:17;;;;;;;6.25;3.97;;;;;;;23.87;41.07;100417.66;5131785;27;20482;-64
2021/08/18 10:39:51;;;;;;;5.13;3.90;;;;;;;23.92;40.83;100404.97;5131732;27;20485;-64
2021/08/18 10:42:33;;;;;;;8.55;4.50;;;;;;;23.92;40.99;100407.72;5130418;28;20050;-64
2021/08/18 10:44:59;;;;;;;7.82;4.70;;;;;;;23.90;41.09;100398.84;5131540;27;20039;-63
2021/08/18 10:47:25;;;;;;;7.63;4.68;;;;;;;23.89;40.69;100404.59;5132058;27;20023;-64
2021/08/18 10:49:59;;;;;;;6.03;4.05;;;;;;;23.87;41.02;100393.84;5131783;27;20030;-63
2021/08/18 10:52:27;;;;;;;5.72;3.85;;;;;;;23.88;41.29;100402.88;5131964;27;20397;-64
2021/08/18 10:55:05;;;;;;;8.18;4.43;;;;;;;23.87;41.23;100398.47;5130426;27;20490;-64
2021/08/18 10:57:38;;;;;;;8.18;4.40;;;;;;;23.86;40.79;100388.59;5130291;28;20071;-64
2021/08/18 11:00:17;;;;;;;9.07;4.10;;;;;;;23.88;40.82;100403.72;5131704;27;20051;-64
2021/08/18 11:02:48;;;;;;;5.43;3.80;;;;;;;23.88;41.44;100392.78;5131325;27;20035;-64
2021/08/18 11:05:15;;;;;;;6.13;3.70;;;;;;;23.88;41.96;100395.50;5131329;27;20468;-64
2021/08/18 11:08:00;;;;;;;5.95;4.03;;;;;;;23.91;41.57;100402.44;5131250;27;20042;-64
2021/08/18 11:10:27;;;;;;;6.10;4.07;;;;;;;23.89;41.54;100401.84;5132897;27;20129;-64
2021/08/18 11:12:54;;;;;;;5.60;3.45;;;;;;;23.86;41.97;100400.34;5134267;27;20034;-64
2021/08/18 11:15:19;;;;;;;7.15;3.92;;;;;;;23.89;42.36;100401.84;5135487;27;20030;-64
2021/08/18 11:17:50;;;;;;;4.07;3.50;;;;;;;23.90;42.16;100401.59;5135307;27;20102;-64
2021/08/18 11:20:20;;;;;;;7.13;4.32;;;;;;;23.91;41.86;100394.22;5135387;27;20485;-64
2021/08/18 11:22:52;;;;;;;5.43;3.70;;;;;;;23.93;41.92;100397.59;5135309;27;20042;-63
2021/08/18 11:25:19;;;;;;;5.18;3.88;;;;;;;23.87;41.95;100391.09;5135577;27;20107;-64